Time;durP1;ratioP1;P1;durP2;ratioP2;P2;SDS_P1;SDS_P2;PMS_P1;PMS_P2;Temp;Humidity;BMP_temperature;BMP_pressure;BME280_temperature;BME280_humidity;BME280_pressure;Samples;Min_cycle;Max_cycle;Signal;HPM_P1;HPM_P2
2021/10/09 00:00:50;;;;;;;;;;;;;;;11.42;59.82;100852.66;4438199;32;34373;-87
2021/10/09 00:03:18;;;;;;;;;;;;;;;11.52;59.83;100843.75;4438536;32;34661;-87
2021/10/09 00:05:44;;;;;;;;;;;;;;;11.41;59.82;100858.75;4438978;32;19990;-86
2021/10/09 00:08:14;;;;;;;;;;;;;;;11.44;59.81;100855.22;4438707;32;20029;-85
2021/10/09 00:10:40;;;;;;;;;;;;;;;11.49;59.82;100845.56;4439801;32;20036;-84
2021/10/09 00:13:23;;;;;;;;;;;;;;;11.55;59.82;100848.91;4438745;32;19981;-86
2021/10/09 00:15:48;;;;;;;;;;;;;;;11.55;59.83;100845.44;4439923;32;20767;-86
2021/10/09 00:18:20;;;;;;;;;;;;;;;11.46;59.82;100840.41;4440493;32;20017;-87
2021/10/09 00:20:45;;;;;;;;;;;;;;;11.42;59.82;100838.75;4438307;32;19995;-86
2021/10/09 00:23:19;;;;;;;;;;;;;;;11.47;59.82;100839.53;4437611;32;34716;-86
2021/10/09 00:25:45;;;;;;;;;;;;;;;11.45;59.81;100830.88;4438766;32;20037;-88
2021/10/09 00:28:14;;;;;;;;;;;;;;;11.30;59.81;100827.66;4438423;32;20001;-85
2021/10/09 00:30:39;;;;;;;;;;;;;;;11.17;59.80;100836.59;4438322;32;20025;-87
2021/10/09 00:33:07;;;;;;;;;;;;;;;11.36;59.81;100827.56;4438748;32;20247;-88
2021/10/09 00:35:32;;;;;;;;;;;;;;;11.40;59.82;100830.09;4438412;32;20146;-87
2021/10/09 00:37:58;;;;;;;;;;;;;;;11.38;59.82;100835.34;4437642;32;29071;-86
2021/10/09 00:40:23;;;;;;;;;;;;;;;11.37;59.81;100841.44;4438073;32;20013;-86
2021/10/09 00:42:48;;;;;;;;;;;;;;;11.38;59.82;100831.00;4437980;32;20020;-86
2021/10/09 00:45:20;;;;;;;;;;;;;;;11.29;59.80;100830.28;4437598;32;35301;-86
2021/10/09 00:47:45;;;;;;;;;;;;;;;11.32;59.81;100825.00;4438169;32;19997;-85
2021/10/09 00:50:13;;;;;;;;;;;;;;;11.23;59.81;100843.44;4438187;32;20012;-86
2021/10/09 00:52:42;;;;;;;;;;;;;;;11.08;59.80;100829.75;4438867;32;20376;-86
2021/10/09 00:55:10;;;;;;;;;;;;;;;11.18;59.80;100825.28;4438251;32;19993;-86
2021/10/09 00:57:35;;;;;;;;;;;;;;;11.35;59.81;100819.75;4437451;32;20033;-86
2021/10/09 01:00:03;;;;;;;;;;;;;;;11.31;59.82;100825.91;4437466;32;19984;-86
2021/10/09 01:02:29;;;;;;;;;;;;;;;11.35;59.81;100825.81;4437546;32;19986;-83
2021/10/09 01:04:54;;;;;;;;;;;;;;;11.45;59.81;100836.94;4436097;32;36088;-84
2021/10/09 01:07:19;;;;;;;;;;;;;;;11.37;59.81;100833.63;4436797;32;20336;-84
2021/10/09 01:09:46;;;;;;;;;;;;;;;11.43;59.82;100835.25;4436613;32;20043;-84
2021/10/09 01:12:14;;;;;;;;;;;;;;;11.30;59.81;100840.69;4436798;32;19996;-83
2021/10/09 01:14:40;;;;;;;;;;;;;;;11.26;59.81;100832.94;4437081;32;20329;-84
2021/10/09 01:17:05;;;;;;;;;;;;;;;11.40;59.82;100832.72;4437097;32;20027;-85
2021/10/09 01:19:31;;;;;;;;;;;;;;;11.46;59.82;100832.59;4436965;32;19969;-84
2021/10/09 01:21:56;;;;;;;;;;;;;;;11.28;59.81;100826.81;4436441;32;20394;-83
2021/10/09 01:24:21;;;;;;;;;;;;;;;11.28;59.81;100831.16;4436383;32;22871;-83
2021/10/09 01:26:46;;;;;;;;;;;;;;;11.19;59.81;100833.94;4436790;32;20019;-83
2021/10/09 01:29:12;;;;;;;;;;;;;;;11.23;59.81;100835.59;4436285;32;20026;-84
2021/10/09 01:31:37;;;;;;;;;;;;;;;11.14;59.81;100836.63;4436383;32;20499;-83
2021/10/09 01:34:02;;;;;;;;;;;;;;;11.10;59.80;100840.16;4436720;32;20302;-83
2021/10/09 01:36:31;;;;;;;;;;;;;;;11.11;59.80;100833.19;4436272;32;24022;-85
2021/10/09 01:38:56;;;;;;;;;;;;;;;10.92;59.79;100836.13;4424205;32;19978;-84
2021/10/09 01:41:21;;;;;;;;;;;;;;;11.06;59.79;100831.53;4435962;32;19993;-83
2021/10/09 01:43:50;;;;;;;;;;;;;;;11.13;59.80;100829.72;4435889;32;33296;-85
2021/10/09 01:46:15;;;;;;;;;;;;;;;10.91;59.78;100826.59;4424597;32;20456;-86
2021/10/09 01:48:41;;;;;;;;;;;;;;;10.95;59.79;100824.78;4436288;32;33777;-87
2021/10/09 01:51:06;;;;;;;;;;;;;;;10.98;59.79;100824.75;4436814;32;20012;-87
2021/10/09 01:53:31;;;;;;;;;;;;;;;10.95;59.79;100820.44;4437548;32;19985;-87
2021/10/09 01:55:57;;;;;;;;;;;;;;;10.96;59.79;100816.09;4437381;32;19989;-84
2021/10/09 01:58:22;;;;;;;;;;;;;;;10.90;59.79;100829.22;4436951;32;20053;-85
2021/10/09 02:00:47;;;;;;;;;;;;;;;10.74;59.78;100824.25;4436699;32;20005;-85
2021/10/09 02:03:15;;;;;;;;;;;;;;;10.69;59.77;100830.41;4437253;32;20310;-84
2021/10/09 02:05:40;;;;;;;;;;;;;;;10.87;59.79;100829.25;4439638;32;20017;-88
2021/10/09 02:08:05;;;;;;;;;;;;;;;10.72;59.78;100820.81;4437998;32;20021;-87
2021/10/09 02:10:31;;;;;;;;;;;;;;;10.64;59.78;100832.22;4438357;32;19996;-86
2021/10/09 02:12:58;;;;;;;;;;;;;;;10.71;59.78;100837.31;4424369;32;20673;-86
2021/10/09 02:26:31;;;;;;;;;;;;;;;10.76;59.79;100832.91;4438965;32;20001;-86
2021/10/09 02:28:56;;;;;;;;;;;;;;;10.91;59.78;100831.81;4438012;32;28305;-85
2021/10/09 02:31:21;;;;;;;;;;;;;;;10.92;59.79;100848.28;4438390;32;20016;-85
2021/10/09 02:33:46;;;;;;;;;;;;;;;11.05;59.80;100834.16;4437907;32;35254;-86
2021/10/09 02:36:11;;;;;;;;;;;;;;;10.88;59.79;100846.59;4437996;32;20007;-86
2021/10/09 02:38:37;;;;;;;;;;;;;;;10.85;59.79;100838.84;4437440;32;32756;-85
2021/10/09 02:41:04;;;;;;;;;;;;;;;10.87;59.79;100850.09;4437673;32;27946;-84
2021/10/09 02:43:29;;;;;;;;;;;;;;;10.82;59.78;100850.16;4439558;32;19992;-84
2021/10/09 02:45:55;;;;;;;;;;;;;;;10.72;59.78;100848.59;4438759;32;34116;-85
2021/10/09 02:48:20;;;;;;;;;;;;;;;10.80;59.78;100851.94;4437463;32;36985;-85
2021/10/09 02:50:45;;;;;;;;;;;;;;;10.87;59.79;100845.72;4437887;32;23025;-85
2021/10/09 02:53:10;;;;;;;;;;;;;;;10.86;59.79;100846.63;4438804;32;31450;-84
2021/10/09 02:55:36;;;;;;;;;;;;;;;10.84;59.79;100855.34;4439622;32;20240;-86
2021/10/09 02:58:01;;;;;;;;;;;;;;;10.69;59.79;100849.50;4438736;32;20254;-83
2021/10/09 03:00:26;;;;;;;;;;;;;;;10.66;59.78;100848.69;4439956;32;20019;-83
2021/10/09 03:02:51;;;;;;;;;;;;;;;10.67;59.77;100851.28;4438113;32;19977;-84
2021/10/09 03:05:18;;;;;;;;;;;;;;;10.66;59.77;100846.94;4437322;32;31638;-86
2021/10/09 03:07:43;;;;;;;;;;;;;;;10.64;59.78;100853.91;4438208;32;20022;-85
2021/10/09 03:10:08;;;;;;;;;;;;;;;10.39;59.76;100852.53;4438058;32;20029;-83
2021/10/09 03:12:36;;;;;;;;;;;;;;;10.47;59.76;100852.44;4425227;32;20020;-84
2021/10/09 03:15:02;;;;;;;;;;;;;;;10.33;59.76;100861.28;4438530;32;20652;-86
2021/10/09 03:17:31;;;;;;;;;;;;;;;10.53;59.77;100850.59;4438972;32;19965;-86
2021/10/09 03:19:56;;;;;;;;;;;;;;;10.51;59.77;100854.97;4439169;32;19977;-85
2021/10/09 03:22:24;;;;;;;;;;;;;;;10.50;59.77;100845.44;4437697;32;34840;-85
2021/10/09 03:24:49;;;;;;;;;;;;;;;10.49;59.77;100854.13;4438879;32;19997;-85
2021/10/09 03:27:14;;;;;;;;;;;;;;;10.54;59.78;100857.53;4438721;32;19993;-85
2021/10/09 03:29:40;;;;;;;;;;;;;;;10.55;59.78;100859.25;4437819;32;27771;-85
2021/10/09 03:32:08;;;;;;;;;;;;;;;10.59;59.77;100865.28;4436192;32;33613;-85
2021/10/09 03:34:33;;;;;;;;;;;;;;;10.47;59.77;100853.31;4437607;32;20013;-84
2021/10/09 03:37:02;;;;;;;;;;;;;;;10.50;59.77;100863.66;4437435;32;20016;-83
2021/10/09 03:39:31;;;;;;;;;;;;;;;10.52;59.77;100866.25;4438959;32;20021;-87
2021/10/09 03:42:05;;;;;;;;;;;;;;;10.48;59.77;100856.75;4437131;32;20004;-84
2021/10/09 03:44:34;;;;;;;;;;;;;;;10.54;59.77;100867.09;4437699;32;20039;-84
2021/10/09 03:47:12;;;;;;;;;;;;;;;10.30;59.76;100866.53;4438271;32;20031;-84
2021/10/09 03:49:55;;;;;;;;;;;;;;;10.37;59.76;100864.69;4437402;32;20016;-84
2021/10/09 03:52:42;;;;;;;;;;;;;;;10.39;59.76;100865.53;4439617;32;20039;-85
2021/10/09 03:55:07;;;;;;;;;;;;;;;10.31;59.76;100870.84;4438121;32;20651;-85
2021/10/09 03:57:32;;;;;;;;;;;;;;;10.32;59.76;100864.78;4425566;32;19973;-89
2021/10/09 03:59:57;;;;;;;;;;;;;;;10.29;59.76;100864.81;4439670;32;19988;-86
2021/10/09 04:02:22;;;;;;;;;;;;;;;10.24;59.76;100864.03;4439466;32;29480;-89
2021/10/09 04:04:48;;;;;;;;;;;;;;;10.29;59.75;100863.94;4440092;32;19981;-89
2021/10/09 04:07:13;;;;;;;;;;;;;;;10.29;59.75;100867.41;4438747;32;30612;-88
2021/10/09 04:09:38;;;;;;;;;;;;;;;10.24;59.75;100878.78;4439406;32;22891;-88
2021/10/09 04:12:03;;;;;;;;;;;;;;;10.17;59.76;100870.13;4439265;32;34196;-88
2021/10/09 04:14:29;;;;;;;;;;;;;;;10.24;59.75;100870.97;4439753;32;20368;-88
2021/10/09 04:16:57;;;;;;;;;;;;;;;10.31;59.76;100870.00;4439687;32;20346;-88
2021/10/09 04:19:22;;;;;;;;;;;;;;;10.28;59.75;100870.91;4440008;32;20576;-87
2021/10/09 04:21:47;;;;;;;;;;;;;;;10.15;59.75;100874.50;4439598;32;21658;-88
2021/10/09 04:24:17;;;;;;;;;;;;;;;10.42;59.77;100873.34;4439213;32;29673;-89
2021/10/09 04:26:43;;;;;;;;;;;;;;;10.16;59.75;100881.41;4440025;32;19973;-88
2021/10/09 04:29:08;;;;;;;;;;;;;;;10.23;59.75;100875.31;4439511;32;32364;-86
2021/10/09 04:31:33;;;;;;;;;;;;;;;10.18;59.76;100881.41;4439340;32;24002;-87
2021/10/09 04:33:58;;;;;;;;;;;;;;;10.10;59.75;100876.28;4439938;32;20864;-86
2021/10/09 04:36:23;;;;;;;;;;;;;;;10.01;59.73;100874.66;4439231;32;33728;-86
2021/10/09 04:38:49;;;;;;;;;;;;;;;10.00;59.74;100883.34;4439317;32;33552;-87
2021/10/09 04:41:14;;;;;;;;;;;;;;;10.01;59.75;100879.00;4439504;32;29750;-87
2021/10/09 04:43:39;;;;;;;;;;;;;;;9.94;59.75;100879.97;4439647;32;20033;-86
2021/10/09 04:46:04;;;;;;;;;;;;;;;9.87;59.74;100886.97;4439926;32;20329;-86
2021/10/09 04:48:30;;;;;;;;;;;;;;;9.88;59.74;100882.62;4439275;32;31065;-87
2021/10/09 04:50:55;;;;;;;;;;;;;;;9.91;59.73;100880.84;4439659;32;22415;-87
2021/10/09 04:53:20;;;;;;;;;;;;;;;9.84;59.73;100887.84;4440122;32;20013;-86
2021/10/09 04:55:45;;;;;;;;;;;;;;;9.85;59.73;100880.91;4440170;32;20356;-87
2021/10/09 04:58:11;;;;;;;;;;;;;;;9.87;59.74;100879.16;4439466;32;27330;-87
2021/10/09 05:00:36;;;;;;;;;;;;;;;9.83;59.74;100880.06;4439913;32;20012;-87
2021/10/09 05:03:01;;;;;;;;;;;;;;;9.91;59.73;100885.19;4440336;32;19997;-87
2021/10/09 05:05:26;;;;;;;;;;;;;;;9.78;59.72;100893.12;4440108;32;20033;-88
2021/10/09 05:07:52;;;;;;;;;;;;;;;9.87;59.73;100891.31;4440399;32;19985;-87
2021/10/09 05:10:17;;;;;;;;;;;;;;;9.69;59.72;100897.53;4440059;32;19973;-87
2021/10/09 05:12:42;;;;;;;;;;;;;;;9.69;59.72;100893.22;4439865;32;19989;-86
2021/10/09 05:15:08;;;;;;;;;;;;;;;9.71;59.72;100894.09;4440036;32;19985;-87
2021/10/09 05:17:33;;;;;;;;;;;;;;;9.74;59.73;100893.19;4439997;32;19992;-87
2021/10/09 05:19:58;;;;;;;;;;;;;;;9.82;59.73;100899.16;4439058;32;25223;-87
2021/10/09 05:22:23;;;;;;;;;;;;;;;9.72;59.73;100893.19;4438953;32;22474;-88
2021/10/09 05:24:51;;;;;;;;;;;;;;;9.67;59.73;100896.69;4438751;32;22505;-88
2021/10/09 05:27:16;;;;;;;;;;;;;;;9.77;59.72;100894.00;4439954;32;20415;-87
2021/10/09 05:29:41;;;;;;;;;;;;;;;9.73;59.73;100896.66;4439425;32;19977;-88
2021/10/09 05:32:07;;;;;;;;;;;;;;;9.85;59.73;100894.78;4439550;32;20026;-87
2021/10/09 05:34:32;;;;;;;;;;;;;;;9.80;59.73;100900.91;4439159;32;20303;-87
2021/10/09 05:36:58;;;;;;;;;;;;;;;9.89;59.74;100898.19;4441476;32;20011;-88
2021/10/09 05:39:23;;;;;;;;;;;;;;;10.00;59.74;100898.97;4426126;32;20000;-86
2021/10/09 05:41:48;;;;;;;;;;;;;;;10.03;59.75;100904.13;4438942;32;20047;-87
2021/10/09 05:44:14;;;;;;;;;;;;;;;10.02;59.75;100902.41;4438715;32;19982;-87
2021/10/09 05:46:39;;;;;;;;;;;;;;;10.03;59.75;100908.47;4438969;32;20017;-87
2021/10/09 05:49:04;;;;;;;;;;;;;;;10.12;59.75;100905.75;4438691;32;20061;-85
2021/10/09 05:51:33;;;;;;;;;;;;;;;10.11;59.75;100902.28;4438848;32;19982;-85
2021/10/09 05:54:12;;;;;;;;;;;;;;;10.11;59.75;100910.09;4438866;32;19988;-86
2021/10/09 06:44:29;;;;;;;;;;;;;;;11.26;59.81;100926.78;4438770;32;20034;-88
2021/10/09 07:00:34;;;;;;;;;;;;;;;11.53;59.83;100934.12;4438658;32;19988;-88
2021/10/09 07:02:59;;;;;;;;;;;;;;;11.59;59.84;100928.84;4438071;32;20005;-88
2021/10/09 07:05:25;;;;;;;;;;;;;;;11.51;59.82;100935.06;4438038;32;19997;-89
2021/10/09 07:07:54;;;;;;;;;;;;;;;11.61;59.83;100934.03;4439868;32;20001;-88
2021/10/09 07:10:19;;;;;;;;;;;;;;;11.43;59.82;100934.34;4440148;32;19974;-87
2021/10/09 07:12:44;;;;;;;;;;;;;;;11.48;59.83;100935.09;4442390;32;20047;-87
2021/10/09 07:15:12;;;;;;;;;;;;;;;11.58;59.83;100939.25;4440672;32;31141;-86
2021/10/09 07:17:37;;;;;;;;;;;;;;;11.68;59.84;100940.84;4440577;32;19954;-86
2021/10/09 07:20:04;;;;;;;;;;;;;;;11.86;59.85;100932.72;4439232;32;20036;-85
2021/10/09 07:22:29;;;;;;;;;;;;;;;11.88;59.84;100936.16;4440599;32;19961;-87
2021/10/09 07:24:55;;;;;;;;;;;;;;;11.80;59.84;100932.81;4444203;32;20007;-87
2021/10/09 07:27:20;;;;;;;;;;;;;;;11.99;59.85;100929.00;4440284;32;20444;-88
2021/10/09 07:29:45;;;;;;;;;;;;;;;11.80;59.84;100935.44;4439684;32;19992;-88
2021/10/09 07:32:11;;;;;;;;;;;;;;;11.92;59.85;100940.44;4438852;32;26404;-86
2021/10/09 07:34:38;;;;;;;;;;;;;;;11.93;59.85;100949.13;4439556;32;19985;-85
2021/10/09 07:37:03;;;;;;;;;;;;;;;11.95;59.85;100945.59;4439285;32;19973;-86
2021/10/09 07:39:28;;;;;;;;;;;;;;;12.05;59.85;100940.19;4439289;32;20043;-86
2021/10/09 07:41:54;;;;;;;;;;;;;;;12.04;59.85;100946.31;4439244;32;20287;-86
2021/10/09 07:44:23;;;;;;;;;;;;;;;12.04;59.85;100948.91;4438740;32;20028;-83
2021/10/09 07:46:48;;;;;;;;;;;;;;;12.27;59.88;100944.09;4437653;32;20030;-84
2021/10/09 07:49:13;;;;;;;;;;;;;;;12.29;59.88;100935.34;4438043;32;19977;-86
2021/10/09 07:51:42;;;;;;;;;;;;;;;12.47;59.88;100941.97;4437288;32;20812;-84
2021/10/09 07:54:07;;;;;;;;;;;;;;;12.57;59.89;100940.88;4437130;32;20001;-85
2021/10/09 07:56:32;;;;;;;;;;;;;;;12.67;59.89;100940.69;4437130;32;19973;-84
2021/10/09 07:58:58;;;;;;;;;;;;;;;12.73;59.90;100938.78;4437027;32;19999;-85
2021/10/09 08:01:23;;;;;;;;;;;;;;;12.75;59.90;100939.59;4436412;32;33245;-85
2021/10/09 08:03:48;;;;;;;;;;;;;;;12.81;59.90;100931.66;4437037;32;20004;-85
2021/10/09 08:06:14;;;;;;;;;;;;;;;12.54;59.88;100943.56;4436736;32;19981;-86
2021/10/09 08:08:42;;;;;;;;;;;;;;;12.71;59.89;100939.72;4436846;32;24452;-84
2021/10/09 08:11:07;;;;;;;;;;;;;;;12.80;59.89;100950.00;4425068;32;19990;-86
2021/10/09 08:13:32;;;;;;;;;;;;;;;12.77;59.89;100944.78;4438326;32;20003;-87
2021/10/09 08:15:58;;;;;;;;;;;;;;;13.06;59.92;100938.94;4438362;32;19981;-86
2021/10/09 08:18:23;;;;;;;;;;;;;;;13.19;59.92;100943.84;4437885;32;20328;-86
2021/10/09 08:20:54;;;;;;;;;;;;;;;13.27;59.93;100935.84;4437197;32;27065;-84
2021/10/09 08:23:23;;;;;;;;;;;;;;;13.26;59.92;100938.50;4437567;32;20055;-85
2021/10/09 08:26:20;;;;;;;;;;;;;;;13.30;59.92;100945.37;4436899;32;19973;-85
2021/10/09 08:39:28;;;;;;;;;;;;;;;13.85;59.95;100934.38;4438275;32;20778;-84
2021/10/09 08:41:57;;;;;;;;;;;;;;;13.94;59.97;100939.34;4436918;32;19989;-84
2021/10/09 08:44:22;;;;;;;;;;;;;;;14.20;59.98;100941.28;4437383;32;20012;-85
2021/10/09 08:46:47;;;;;;;;;;;;;;;14.25;59.98;100933.28;4437020;32;20280;-86
2021/10/09 08:49:13;;;;;;;;;;;;;;;14.54;59.99;100935.94;4436730;32;19999;-86
2021/10/09 08:51:39;;;;;;;;;;;;;;;14.57;60.00;100929.75;4436958;32;20023;-85
2021/10/09 08:54:07;;;;;;;;;;;;;;;14.69;60.00;100935.50;4424023;32;19985;-84
2021/10/09 08:56:33;;;;;;;;;;;;;;;14.83;60.01;100932.44;4436461;32;19982;-83
2021/10/09 08:59:15;;;;;;;;;;;;;;;14.84;60.00;100935.94;4438433;32;20031;-85
2021/10/09 09:01:51;;;;;;;;;;;;;;;14.94;60.02;100929.50;4436755;32;20349;-85
2021/10/09 09:31:49;;;;;;;;;;;;;;;15.14;60.03;100926.25;4438968;32;20129;-86
2021/10/09 09:39:40;;;;;;;;;;;;;;;15.79;60.07;100925.84;4438642;32;20160;-86
2021/10/09 09:42:05;;;;;;;;;;;;;;;15.81;60.07;100921.41;4423925;32;19985;-86
2021/10/09 09:44:30;;;;;;;;;;;;;;;15.73;60.06;100915.56;4424062;32;20001;-86
2021/10/09 09:47:01;;;;;;;;;;;;;;;15.80;60.07;100915.28;4436679;32;29645;-87
2021/10/09 09:49:27;;;;;;;;;;;;;;;15.71;60.06;100920.88;4437325;32;20358;-83
2021/10/09 09:51:53;;;;;;;;;;;;;;;15.85;60.07;100916.00;4436211;32;19996;-86
2021/10/09 09:54:18;;;;;;;;;;;;;;;16.07;60.07;100907.34;4436443;32;20392;-86
2021/10/09 09:56:43;;;;;;;;;;;;;;;16.14;60.08;100901.84;4436548;32;34403;-86
2021/10/09 09:59:08;;;;;;;;;;;;;;;16.01;60.08;100905.78;4436931;32;33968;-87
2021/10/09 10:01:34;;;;;;;;;;;;;;;15.96;60.08;100913.00;4437072;32;29486;-87
2021/10/09 10:03:59;;;;;;;;;;;;;;;16.08;60.09;100902.03;4437666;32;20021;-86
2021/10/09 10:06:26;;;;;;;;;;;;;;;16.33;60.09;100902.00;4437857;32;20026;-87
2021/10/09 10:08:51;;;;;;;;;;;;;;;16.42;60.10;100901.66;4425008;32;19987;-87
2021/10/09 10:11:17;;;;;;;;;;;;;;;16.40;60.10;100894.75;4437308;32;27973;-87
2021/10/09 10:13:43;;;;;;;;;;;;;;;16.28;60.08;100896.91;4438163;32;19997;-86
2021/10/09 10:16:09;;;;;;;;;;;;;;;16.18;60.09;100900.78;4437847;32;20031;-87
2021/10/09 10:18:43;;;;;;;;;;;;;;;16.04;60.08;100900.44;4436839;32;19978;-87
2021/10/09 10:21:08;;;;;;;;;;;;;;;16.24;60.09;100902.34;4437163;32;20657;-85
2021/10/09 10:23:36;;;;;;;;;;;;;;;16.52;60.10;100886.38;4436913;32;20027;-87
2021/10/09 10:26:19;;;;;;;;;;;;;;;16.61;60.10;100898.34;4437413;32;20001;-86
2021/10/09 10:28:48;;;;;;;;;;;;;;;16.68;60.11;100897.19;4438383;32;20000;-87
2021/10/09 10:31:13;;;;;;;;;;;;;;;16.83;60.14;100897.47;4424898;32;19993;-86
2021/10/09 10:33:43;;;;;;;;;;;;;;;16.90;60.13;100894.59;4436937;32;33049;-87
2021/10/09 10:36:09;;;;;;;;;;;;;;;16.87;60.12;100892.94;4437480;32;20098;-88
2021/10/09 10:38:37;;;;;;;;;;;;;;;16.82;60.12;100901.03;4424801;32;20001;-86
2021/10/09 10:41:06;;;;;;;;;;;;;;;16.78;60.13;100898.53;4437993;32;19981;-87
2021/10/09 10:43:33;;;;;;;;;;;;;;;16.86;60.13;100896.50;4438782;32;20045;-87
2021/10/09 10:46:00;;;;;;;;;;;;;;;17.03;60.13;100895.78;4439098;32;19993;-86
2021/10/09 10:48:45;;;;;;;;;;;;;;;17.21;60.14;100884.53;4438900;32;20686;-87
2021/10/09 10:51:30;;;;;;;;;;;;;;;17.34;60.15;100893.63;4440782;32;19974;-87
2021/10/09 10:54:05;;;;;;;;;;;;;;;17.16;60.14;100883.88;4440503;32;20068;-87
2021/10/09 10:56:31;;;;;;;;;;;;;;;17.20;60.14;100888.06;4439384;32;20346;-86
2021/10/09 10:59:15;;;;;;;;;;;;;;;17.15;60.13;100890.06;4438683;32;32842;-87
2021/10/09 11:01:40;;;;;;;;;;;;;;;17.16;60.14;100883.88;4439179;32;19953;-87
2021/10/09 11:04:05;;;;;;;;;;;;;;;17.29;60.14;100873.69;4439866;32;20057;-87
2021/10/09 11:06:30;;;;;;;;;;;;;;;17.26;60.15;100889.59;4441487;32;27245;-87
2021/10/09 11:08:59;;;;;;;;;;;;;;;17.41;60.16;100902.97;4437755;32;27924;-87
2021/10/09 11:11:34;;;;;;;;;;;;;;;17.25;60.14;100890.50;4438450;32;19990;-88
2021/10/09 11:13:59;;;;;;;;;;;;;;;17.02;60.13;100876.53;4439030;32;19962;-89
2021/10/09 11:16:28;;;;;;;;;;;;;;;17.00;60.14;100894.16;4438252;32;27752;-84
2021/10/09 11:18:53;;;;;;;;;;;;;;;17.03;60.13;100899.28;4439889;32;20117;-87
2021/10/09 11:21:22;;;;;;;;;;;;;;;17.13;60.13;100886.62;4438664;32;20012;-87
2021/10/09 11:23:48;;;;;;;;;;;;;;;17.08;60.14;100881.56;4438763;32;19993;-85
2021/10/09 11:26:13;;;;;;;;;;;;;;;17.27;60.14;100876.41;4426274;32;19989;-85
2021/10/09 11:28:41;;;;;;;;;;;;;;;17.45;60.15;100866.84;4438534;32;20732;-85
2021/10/09 11:31:06;;;;;;;;;;;;;;;17.30;60.15;100878.91;4437952;32;19973;-86
2021/10/09 11:33:31;;;;;;;;;;;;;;;17.11;60.13;100881.44;4438470;32;19977;-85
2021/10/09 11:35:56;;;;;;;;;;;;;;;17.16;60.14;100868.06;4437545;32;29980;-83
2021/10/09 11:38:23;;;;;;;;;;;;;;;17.32;60.15;100863.03;4438248;32;20052;-87
2021/10/09 11:41:10;;;;;;;;;;;;;;;17.30;60.15;100870.16;4426185;32;19978;-87
2021/10/09 11:46:26;;;;;;;;;;;;;;;17.40;60.15;100867.06;4438510;32;20771;-87
2021/10/09 11:54:49;;;;;;;;;;;;;;;17.71;60.17;100868.38;4437684;32;20039;-86
2021/10/09 11:57:14;;;;;;;;;;;;;;;17.84;60.18;100866.09;4440096;32;20013;-85
2021/10/09 11:59:40;;;;;;;;;;;;;;;17.86;60.18;100864.25;4437579;32;30547;-88
2021/10/09 12:02:06;;;;;;;;;;;;;;;17.85;60.18;100862.53;4439199;32;20235;-87
2021/10/09 12:04:31;;;;;;;;;;;;;;;17.93;60.18;100856.00;4424989;32;20020;-89
2021/10/09 12:09:38;;;;;;;;;;;;;;;18.13;60.19;100852.47;4437870;32;19982;-86
2021/10/09 12:12:22;;;;;;;;;;;;;;;18.09;60.19;100857.00;4425783;32;20664;-88
2021/10/09 12:14:48;;;;;;;;;;;;;;;18.03;60.19;100857.31;4438671;32;19989;-88
2021/10/09 12:17:13;;;;;;;;;;;;;;;17.92;60.19;100850.78;4437893;32;20029;-85
2021/10/09 12:19:39;;;;;;;;;;;;;;;17.81;60.18;100853.91;4438435;32;20000;-87
2021/10/09 12:22:05;;;;;;;;;;;;;;;17.40;60.16;100850.41;4438190;32;19989;-87
2021/10/09 12:24:50;;;;;;;;;;;;;;;17.54;60.16;100852.47;4438237;32;20012;-88
2021/10/09 12:27:19;;;;;;;;;;;;;;;17.63;60.17;100855.53;4439602;32;20054;-86
2021/10/09 12:30:04;;;;;;;;;;;;;;;17.64;60.17;100848.50;4438417;32;20004;-87
2021/10/09 12:32:30;;;;;;;;;;;;;;;17.70;60.17;100853.50;4438425;32;20000;-88
2021/10/09 12:35:10;;;;;;;;;;;;;;;17.93;60.19;100842.81;4425422;32;20020;-87
2021/10/09 12:37:37;;;;;;;;;;;;;;;17.89;60.18;100838.62;4438290;32;20362;-86
2021/10/09 12:40:12;;;;;;;;;;;;;;;17.64;60.17;100844.09;4438450;32;19996;-86
2021/10/09 12:42:39;;;;;;;;;;;;;;;17.46;60.16;100839.59;4425588;32;19996;-87
2021/10/09 12:45:04;;;;;;;;;;;;;;;17.72;60.17;100835.88;4437888;32;19985;-85
2021/10/09 12:47:30;;;;;;;;;;;;;;;17.72;60.17;100847.25;4438391;32;20370;-86
2021/10/09 12:49:55;;;;;;;;;;;;;;;17.50;60.16;100828.88;4438712;32;19995;-86
2021/10/09 12:52:20;;;;;;;;;;;;;;;17.41;60.16;100839.81;4438282;32;20011;-85
2021/10/09 12:54:45;;;;;;;;;;;;;;;17.54;60.17;100836.66;4440309;32;29497;-86
2021/10/09 12:57:10;;;;;;;;;;;;;;;17.37;60.15;100840.87;4437627;32;20020;-86
2021/10/09 12:59:36;;;;;;;;;;;;;;;17.49;60.17;100842.97;4437045;32;20038;-86
2021/10/09 13:02:02;;;;;;;;;;;;;;;17.49;60.16;100847.37;4437934;32;20055;-85
2021/10/09 13:04:27;;;;;;;;;;;;;;;17.68;60.18;100837.78;4437651;32;20033;-86
2021/10/09 13:06:53;;;;;;;;;;;;;;;17.74;60.17;100836.66;4438013;32;20142;-87
2021/10/09 13:09:18;;;;;;;;;;;;;;;17.67;60.17;100849.25;4437133;32;31738;-85
2021/10/09 13:11:47;;;;;;;;;;;;;;;17.59;60.16;100835.53;4437464;32;19985;-84
2021/10/09 13:14:13;;;;;;;;;;;;;;;17.62;60.18;100829.28;4437738;32;19999;-85
2021/10/09 13:16:38;;;;;;;;;;;;;;;17.52;60.16;100830.63;4437733;32;20013;-85
2021/10/09 13:19:03;;;;;;;;;;;;;;;17.55;60.17;100831.34;4437317;32;20315;-85
2021/10/09 13:21:28;;;;;;;;;;;;;;;17.59;60.17;100832.03;4437177;32;19988;-84
2021/10/09 13:23:54;;;;;;;;;;;;;;;17.47;60.16;100830.78;4436672;32;24150;-85
2021/10/09 13:26:19;;;;;;;;;;;;;;;17.43;60.16;100826.59;4436496;32;31581;-84
2021/10/09 13:28:44;;;;;;;;;;;;;;;17.16;60.15;100831.25;4437143;32;20327;-84
2021/10/09 13:31:09;;;;;;;;;;;;;;;17.27;60.15;100833.41;4436945;32;27497;-85
2021/10/09 13:33:37;;;;;;;;;;;;;;;17.17;60.15;100825.06;4436375;32;27140;-86
2021/10/09 13:36:05;;;;;;;;;;;;;;;17.05;60.13;100834.34;4438298;32;20801;-86
2021/10/09 13:38:32;;;;;;;;;;;;;;;17.05;60.14;100828.22;4437770;32;19978;-85
2021/10/09 13:40:57;;;;;;;;;;;;;;;17.15;60.15;100826.91;4437090;32;19990;-85
2021/10/09 13:43:22;;;;;;;;;;;;;;;17.29;60.15;100821.06;4436847;32;19997;-85
2021/10/09 13:45:48;;;;;;;;;;;;;;;17.21;60.14;100824.00;4437277;32;19997;-85
2021/10/09 13:48:13;;;;;;;;;;;;;;;17.05;60.14;100834.34;4450082;32;20342;-85
2021/10/09 13:50:56;;;;;;;;;;;;;;;16.86;60.13;100834.22;4437327;32;19992;-84
2021/10/09 13:53:21;;;;;;;;;;;;;;;17.06;60.13;100836.03;4437216;32;19974;-84
2021/10/09 13:55:47;;;;;;;;;;;;;;;17.05;60.14;100833.47;4437008;32;20008;-85
2021/10/09 13:58:12;;;;;;;;;;;;;;;16.94;60.14;100819.91;4436592;32;20045;-85
2021/10/09 14:00:38;;;;;;;;;;;;;;;17.03;60.14;100822.12;4436813;32;20001;-86
2021/10/09 14:03:04;;;;;;;;;;;;;;;17.02;60.14;100826.53;4437092;32;20088;-85
2021/10/09 14:05:29;;;;;;;;;;;;;;;16.83;60.14;100821.22;4438137;32;19981;-85
2021/10/09 14:07:54;;;;;;;;;;;;;;;17.00;60.14;100815.22;4436670;32;19989;-85
2021/10/09 14:10:20;;;;;;;;;;;;;;;17.02;60.14;100823.06;4436852;32;20069;-85
2021/10/09 14:12:45;;;;;;;;;;;;;;;16.96;60.13;100815.44;4436760;32;19989;-85
2021/10/09 14:15:11;;;;;;;;;;;;;;;17.01;60.14;100816.09;4436673;32;20258;-85
2021/10/09 14:17:37;;;;;;;;;;;;;;;16.86;60.13;100812.34;4437892;32;19969;-85
2021/10/09 14:20:02;;;;;;;;;;;;;;;16.93;60.14;100818.19;4438354;32;20065;-85
2021/10/09 14:22:28;;;;;;;;;;;;;;;17.03;60.14;100820.37;4425752;32;20431;-85
2021/10/09 14:24:53;;;;;;;;;;;;;;;16.96;60.13;100805.75;4438857;32;20802;-87
2021/10/09 14:27:18;;;;;;;;;;;;;;;16.76;60.13;100809.22;4437778;32;23787;-86
2021/10/09 14:29:43;;;;;;;;;;;;;;;16.81;60.13;100814.31;4437583;32;29220;-86
2021/10/09 14:32:09;;;;;;;;;;;;;;;16.79;60.12;100811.72;4438501;32;20001;-85
2021/10/09 14:34:34;;;;;;;;;;;;;;;16.86;60.13;100810.56;4439281;32;25401;-86
2021/10/09 14:36:59;;;;;;;;;;;;;;;16.67;60.11;100814.84;4439534;32;19993;-86
2021/10/09 14:39:27;;;;;;;;;;;;;;;16.68;60.13;100806.03;4425491;32;19973;-86
2021/10/09 14:41:52;;;;;;;;;;;;;;;16.80;60.12;100808.19;4439722;32;20274;-87
2021/10/09 14:44:17;;;;;;;;;;;;;;;16.69;60.12;100807.75;4439712;32;28981;-86